sensor_id;sensor_type;location;lat;lon;timestamp;pressure;altitude;pressure_sealevel;temperature;humidity
42247;BME280;27913;42.722;23.268;2024-02-21T00:02:11;95495.72;;;3.79;100.00
42247;BME280;27913;42.722;23.268;2024-02-21T00:04:36;95680.88;;;4.78;100.00
42247;BME280;27913;42.722;23.268;2024-02-21T00:07:04;95684.81;;;4.72;100.00
42247;BME280;27913;42.722;23.268;2024-02-21T00:09:29;95671.66;;;4.74;100.00
42247;BME280;27913;42.722;23.268;2024-02-21T00:11:56;95245.31;;;2.13;100.00
42247;BME280;27913;42.722;23.268;2024-02-21T00:14:23;95592.47;;;4.35;100.00
42247;BME280;27913;42.722;23.268;2024-02-21T00:16:49;95335.59;;;2.62;100.00
42247;BME280;27913;42.722;23.268;2024-02-21T00:19:14;95670.44;;;4.78;100.00
42247;BME280;27913;42.722;23.268;2024-02-21T00:21:40;95654.41;;;4.82;100.00
42247;BME280;27913;42.722;23.268;2024-02-21T00:24:06;95678.69;;;4.83;100.00
42247;BME280;27913;42.722;23.268;2024-02-21T00:26:32;95644.06;;;4.61;100.00
42247;BME280;27913;42.722;23.268;2024-02-21T00:28:57;95411.28;;;3.42;100.00
42247;BME280;27913;42.722;23.268;2024-02-21T00:31:23;95422.78;;;3.49;100.00
42247;BME280;27913;42.722;23.268;2024-02-21T00:33:49;95284.06;;;2.58;100.00
42247;BME280;27913;42.722;23.268;2024-02-21T00:36:14;95663.84;;;4.83;100.00
42247;BME280;27913;42.722;23.268;2024-02-21T00:38:40;95670.03;;;4.82;100.00
42247;BME280;27913;42.722;23.268;2024-02-21T00:41:06;95289.31;;;2.46;100.00
42247;BME280;27913;42.722;23.268;2024-02-21T00:43:31;95572.97;;;4.19;100.00
42247;BME280;27913;42.722;23.268;2024-02-21T00:45:57;95262.59;;;2.24;100.00
42247;BME280;27913;42.722;23.268;2024-02-21T00:48:23;95600.25;;;4.25;100.00
42247;BME280;27913;42.722;23.268;2024-02-21T00:50:48;95675.47;;;4.69;100.00
42247;BME280;27913;42.722;23.268;2024-02-21T00:53:14;95658.88;;;4.61;100.00
42247;BME280;27913;42.722;23.268;2024-02-21T00:55:39;95659.59;;;4.73;100.00
42247;BME280;27913;42.722;23.268;2024-02-21T00:58:05;95646.56;;;4.73;100.00
42247;BME280;27913;42.722;23.268;2024-02-21T01:03:06;95538.16;;;4.20;100.00
42247;BME280;27913;42.722;23.268;2024-02-21T01:05:32;95630.66;;;4.86;100.00
42247;BME280;27913;42.722;23.268;2024-02-21T01:07:58;95372.50;;;3.29;100.00
42247;BME280;27913;42.722;23.268;2024-02-21T01:10:24;95624.66;;;4.95;100.00
42247;BME280;27913;42.722;23.268;2024-02-21T01:12:49;95623.53;;;4.98;100.00
42247;BME280;27913;42.722;23.268;2024-02-21T01:15:15;95620.81;;;5.09;100.00
42247;BME280;27913;42.722;23.268;2024-02-21T01:17:40;95613.13;;;5.17;100.00
42247;BME280;27913;42.722;23.268;2024-02-21T01:20:06;95617.50;;;5.27;100.00
42247;BME280;27913;42.722;23.268;2024-02-21T01:22:32;95613.25;;;5.36;100.00
42247;BME280;27913;42.722;23.268;2024-02-21T01:24:58;95566.31;;;5.16;100.00
42247;BME280;27913;42.722;23.268;2024-02-21T01:27:23;95501.19;;;4.56;100.00
42247;BME280;27913;42.722;23.268;2024-02-21T01:29:49;95614.22;;;5.25;100.00
42247;BME280;27913;42.722;23.268;2024-02-21T01:32:15;95606.38;;;5.15;100.00
42247;BME280;27913;42.722;23.268;2024-02-21T01:34:41;95454.03;;;4.20;100.00
42247;BME280;27913;42.722;23.268;2024-02-21T01:37:07;95409.72;;;3.90;100.00
42247;BME280;27913;42.722;23.268;2024-02-21T01:39:33;95528.91;;;4.67;100.00
42247;BME280;27913;42.722;23.268;2024-02-21T01:41:59;95583.06;;;4.93;100.00
42247;BME280;27913;42.722;23.268;2024-02-21T01:44:25;95600.63;;;5.11;100.00
42247;BME280;27913;42.722;23.268;2024-02-21T01:46:51;95520.94;;;4.69;100.00
42247;BME280;27913;42.722;23.268;2024-02-21T01:49:18;95522.44;;;4.71;100.00
42247;BME280;27913;42.722;23.268;2024-02-21T01:51:44;95587.59;;;5.21;100.00
42247;BME280;27913;42.722;23.268;2024-02-21T01:54:12;95341.81;;;3.64;100.00
42247;BME280;27913;42.722;23.268;2024-02-21T01:56:39;95489.69;;;4.39;100.00
42247;BME280;27913;42.722;23.268;2024-02-21T01:59:05;95481.84;;;4.29;100.00
42247;BME280;27913;42.722;23.268;2024-02-21T02:01:30;95577.69;;;4.85;100.00
42247;BME280;27913;42.722;23.268;2024-02-21T02:03:57;95468.25;;;4.06;100.00
42247;BME280;27913;42.722;23.268;2024-02-21T02:06:24;95589.91;;;4.65;100.00
42247;BME280;27913;42.722;23.268;2024-02-21T02:08:50;95575.78;;;4.57;100.00
42247;BME280;27913;42.722;23.268;2024-02-21T02:11:16;95591.72;;;4.74;100.00
42247;BME280;27913;42.722;23.268;2024-02-21T02:13:42;95596.22;;;4.72;100.00
42247;BME280;27913;42.722;23.268;2024-02-21T02:16:07;95429.97;;;3.77;100.00
42247;BME280;27913;42.722;23.268;2024-02-21T02:18:33;95583.19;;;4.82;100.00
42247;BME280;27913;42.722;23.268;2024-02-21T02:20:58;95531.63;;;4.56;100.00
42247;BME280;27913;42.722;23.268;2024-02-21T02:23:25;95576.34;;;4.91;100.00
42247;BME280;27913;42.722;23.268;2024-02-21T02:25:51;95510.50;;;4.49;100.00
42247;BME280;27913;42.722;23.268;2024-02-21T02:28:18;95323.13;;;3.38;100.00
42247;BME280;27913;42.722;23.268;2024-02-21T02:30:44;95581.56;;;4.91;100.00
42247;BME280;27913;42.722;23.268;2024-02-21T02:33:10;95578.13;;;4.90;100.00
42247;BME280;27913;42.722;23.268;2024-02-21T02:35:35;95575.09;;;4.85;100.00
42247;BME280;27913;42.722;23.268;2024-02-21T02:38:02;95572.50;;;4.85;100.00
42247;BME280;27913;42.722;23.268;2024-02-21T02:40:28;95572.78;;;4.92;100.00
42247;BME280;27913;42.722;23.268;2024-02-21T02:42:53;95495.16;;;4.56;100.00
42247;BME280;27913;42.722;23.268;2024-02-21T02:45:21;95562.06;;;5.05;100.00
42247;BME280;27913;42.722;23.268;2024-02-21T02:47:52;95565.78;;;5.12;100.00
42247;BME280;27913;42.722;23.268;2024-02-21T02:50:17;95573.72;;;5.20;100.00
42247;BME280;27913;42.722;23.268;2024-02-21T02:52:43;95435.53;;;4.33;100.00
42247;BME280;27913;42.722;23.268;2024-02-21T02:55:09;95510.38;;;4.70;100.00
42247;BME280;27913;42.722;23.268;2024-02-21T02:57:34;95571.81;;;5.13;100.00
42247;BME280;27913;42.722;23.268;2024-02-21T03:00:00;95442.09;;;4.17;100.00
42247;BME280;27913;42.722;23.268;2024-02-21T03:02:26;95569.34;;;5.01;100.00
42247;BME280;27913;42.722;23.268;2024-02-21T03:04:51;95497.19;;;4.52;100.00
42247;BME280;27913;42.722;23.268;2024-02-21T03:07:17;95590.31;;;5.10;100.00
42247;BME280;27913;42.722;23.268;2024-02-21T03:09:42;95465.25;;;4.40;100.00
42247;BME280;27913;42.722;23.268;2024-02-21T03:12:08;95476.91;;;4.56;100.00
42247;BME280;27913;42.722;23.268;2024-02-21T03:14:34;95586.91;;;5.09;100.00
42247;BME280;27913;42.722;23.268;2024-02-21T03:17:01;95575.53;;;5.00;100.00
42247;BME280;27913;42.722;23.268;2024-02-21T03:19:27;95344.66;;;3.50;100.00
42247;BME280;27913;42.722;23.268;2024-02-21T03:21:53;95376.03;;;3.69;100.00
42247;BME280;27913;42.722;23.268;2024-02-21T03:24:19;95585.69;;;4.93;100.00
42247;BME280;27913;42.722;23.268;2024-02-21T03:26:45;95475.28;;;4.25;100.00
42247;BME280;27913;42.722;23.268;2024-02-21T03:29:15;95592.09;;;4.99;100.00
42247;BME280;27913;42.722;23.268;2024-02-21T03:31:41;95594.72;;;5.09;100.00
42247;BME280;27913;42.722;23.268;2024-02-21T03:34:07;95604.59;;;5.15;100.00
42247;BME280;27913;42.722;23.268;2024-02-21T03:36:33;95473.22;;;4.39;100.00
42247;BME280;27913;42.722;23.268;2024-02-21T03:38:59;95410.97;;;3.96;100.00
42247;BME280;27913;42.722;23.268;2024-02-21T03:41:25;95604.75;;;5.14;100.00
42247;BME280;27913;42.722;23.268;2024-02-21T03:43:50;95311.78;;;3.40;100.00
42247;BME280;27913;42.722;23.268;2024-02-21T03:46:16;95416.19;;;4.06;100.00
42247;BME280;27913;42.722;23.268;2024-02-21T03:48:42;95508.59;;;4.61;100.00
42247;BME280;27913;42.722;23.268;2024-02-21T03:51:08;95533.81;;;4.80;100.00
42247;BME280;27913;42.722;23.268;2024-02-21T03:53:34;95435.81;;;4.20;100.00
42247;BME280;27913;42.722;23.268;2024-02-21T03:56:03;95561.09;;;4.96;100.00
42247;BME280;27913;42.722;23.268;2024-02-21T03:58:33;95568.81;;;4.88;100.00
42247;BME280;27913;42.722;23.268;2024-02-21T04:01:02;95361.09;;;3.71;100.00
42247;BME280;27913;42.722;23.268;2024-02-21T04:03:29;95601.72;;;5.18;100.00
42247;BME280;27913;42.722;23.268;2024-02-21T04:05:54;95610.50;;;5.27;100.00
42247;BME280;27913;42.722;23.268;2024-02-21T04:08:20;95602.53;;;5.29;100.00
42247;BME280;27913;42.722;23.268;2024-02-21T04:10:47;95535.75;;;4.88;100.00
42247;BME280;27913;42.722;23.268;2024-02-21T04:13:12;95235.34;;;2.91;100.00
42247;BME280;27913;42.722;23.268;2024-02-21T04:15:38;95578.25;;;5.08;100.00
42247;BME280;27913;42.722;23.268;2024-02-21T04:18:04;95271.50;;;3.14;100.00
42247;BME280;27913;42.722;23.268;2024-02-21T04:20:29;95487.06;;;4.59;100.00
42247;BME280;27913;42.722;23.268;2024-02-21T04:22:56;95440.44;;;4.26;100.00
42247;BME280;27913;42.722;23.268;2024-02-21T04:25:21;95600.06;;;5.27;100.00
42247;BME280;27913;42.722;23.268;2024-02-21T04:27:47;95315.19;;;3.40;100.00
42247;BME280;27913;42.722;23.268;2024-02-21T04:30:13;95599.09;;;5.18;100.00
42247;BME280;27913;42.722;23.268;2024-02-21T04:32:39;95496.94;;;4.55;100.00
42247;BME280;27913;42.722;23.268;2024-02-21T04:35:06;95597.31;;;5.19;100.00
42247;BME280;27913;42.722;23.268;2024-02-21T04:37:32;95597.03;;;5.22;100.00
42247;BME280;27913;42.722;23.268;2024-02-21T04:39:58;95598.28;;;5.18;100.00
42247;BME280;27913;42.722;23.268;2024-02-21T04:42:23;95604.47;;;5.17;100.00
42247;BME280;27913;42.722;23.268;2024-02-21T04:44:49;95605.16;;;5.09;100.00
42247;BME280;27913;42.722;23.268;2024-02-21T04:47:15;95594.72;;;5.09;100.00
42247;BME280;27913;42.722;23.268;2024-02-21T04:49:40;95500.50;;;4.44;100.00
42247;BME280;27913;42.722;23.268;2024-02-21T04:52:06;95609.13;;;5.13;100.00
42247;BME280;27913;42.722;23.268;2024-02-21T04:54:31;95595.53;;;5.10;100.00
42247;BME280;27913;42.722;23.268;2024-02-21T04:56:57;95604.59;;;5.15;100.00
42247;BME280;27913;42.722;23.268;2024-02-21T04:59:23;95603.66;;;5.16;100.00
42247;BME280;27913;42.722;23.268;2024-02-21T05:01:48;95609.81;;;5.15;100.00
42247;BME280;27913;42.722;23.268;2024-02-21T05:04:14;95469.38;;;4.33;100.00
42247;BME280;27913;42.722;23.268;2024-02-21T05:06:40;95440.72;;;4.13;100.00
42247;BME280;27913;42.722;23.268;2024-02-21T05:09:07;95608.72;;;5.08;100.00
42247;BME280;27913;42.722;23.268;2024-02-21T05:11:36;95604.59;;;4.95;100.00
42247;BME280;27913;42.722;23.268;2024-02-21T05:14:05;95624.38;;;4.98;100.00
42247;BME280;27913;42.722;23.268;2024-02-21T05:16:32;95621.09;;;5.06;100.00
42247;BME280;27913;42.722;23.268;2024-02-21T05:18:57;95616.56;;;5.18;100.00
42247;BME280;27913;42.722;23.268;2024-02-21T05:21:24;95472.53;;;4.37;100.00
42247;BME280;27913;42.722;23.268;2024-02-21T05:23:50;95623.94;;;5.32;100.00
42247;BME280;27913;42.722;23.268;2024-02-21T05:26:26;95519.13;;;4.69;100.00
42247;BME280;27913;42.722;23.268;2024-02-21T05:28:52;95626.44;;;5.34;100.00
42247;BME280;27913;42.722;23.268;2024-02-21T05:31:18;95504.91;;;4.64;100.00
42247;BME280;27913;42.722;23.268;2024-02-21T05:33:44;95507.50;;;4.64;100.00
42247;BME280;27913;42.722;23.268;2024-02-21T05:36:11;95575.25;;;5.03;100.00
42247;BME280;27913;42.722;23.268;2024-02-21T05:38:36;95618.16;;;5.29;100.00
42247;BME280;27913;42.722;23.268;2024-02-21T05:41:02;95610.09;;;5.22;100.00
42247;BME280;27913;42.722;23.268;2024-02-21T05:43:28;95614.88;;;5.37;100.00
42247;BME280;27913;42.722;23.268;2024-02-21T05:45:54;95627.94;;;5.27;100.00
42247;BME280;27913;42.722;23.268;2024-02-21T05:48:21;95629.59;;;5.18;100.00
42247;BME280;27913;42.722;23.268;2024-02-21T05:50:47;95626.28;;;5.16;100.00
42247;BME280;27913;42.722;23.268;2024-02-21T05:53:12;95442.91;;;4.08;100.00
42247;BME280;27913;42.722;23.268;2024-02-21T05:55:38;95629.03;;;5.24;100.00
42247;BME280;27913;42.722;23.268;2024-02-21T05:58:04;95632.59;;;5.23;100.00
42247;BME280;27913;42.722;23.268;2024-02-21T06:00:31;95574.03;;;4.78;100.00
42247;BME280;27913;42.722;23.268;2024-02-21T06:02:57;95638.34;;;5.17;100.00
42247;BME280;27913;42.722;23.268;2024-02-21T06:05:23;95524.19;;;4.41;100.00
42247;BME280;27913;42.722;23.268;2024-02-21T06:07:49;95445.88;;;3.83;100.00
42247;BME280;27913;42.722;23.268;2024-02-21T06:10:15;95511.03;;;4.23;100.00
42247;BME280;27913;42.722;23.268;2024-02-21T06:12:40;95647.81;;;5.08;100.00
42247;BME280;27913;42.722;23.268;2024-02-21T06:15:06;95644.00;;;5.12;100.00
42247;BME280;27913;42.722;23.268;2024-02-21T06:17:34;95518.84;;;4.43;100.00
42247;BME280;27913;42.722;23.268;2024-02-21T06:19:59;95415.75;;;3.81;100.00
42247;BME280;27913;42.722;23.268;2024-02-21T06:22:25;95459.47;;;4.07;100.00
42247;BME280;27913;42.722;23.268;2024-02-21T06:24:50;95661.00;;;5.26;100.00
42247;BME280;27913;42.722;23.268;2024-02-21T06:27:16;95663.06;;;5.23;100.00
42247;BME280;27913;42.722;23.268;2024-02-21T06:29:42;95575.81;;;4.67;100.00
42247;BME280;27913;42.722;23.268;2024-02-21T06:32:08;95670.22;;;5.30;100.00
42247;BME280;27913;42.722;23.268;2024-02-21T06:34:34;95521.34;;;4.54;100.00
42247;BME280;27913;42.722;23.268;2024-02-21T06:36:59;95668.53;;;5.59;99.44
42247;BME280;27913;42.722;23.268;2024-02-21T06:39:25;95673.34;;;5.74;98.65
42247;BME280;27913;42.722;23.268;2024-02-21T06:41:50;95668.47;;;5.89;97.59
42247;BME280;27913;42.722;23.268;2024-02-21T06:44:17;95688.81;;;5.95;96.63
42247;BME280;27913;42.722;23.268;2024-02-21T06:46:43;95579.06;;;5.39;95.95
42247;BME280;27913;42.722;23.268;2024-02-21T06:49:08;95667.09;;;6.14;96.17
42247;BME280;27913;42.722;23.268;2024-02-21T06:51:34;95571.19;;;5.49;95.79
42247;BME280;27913;42.722;23.268;2024-02-21T06:54:00;95645.53;;;6.02;94.97
42247;BME280;27913;42.722;23.268;2024-02-21T06:56:26;95436.44;;;4.71;95.44
42247;BME280;27913;42.722;23.268;2024-02-21T06:58:55;95443.44;;;4.71;95.51
42247;BME280;27913;42.722;23.268;2024-02-21T07:01:21;95603.69;;;5.64;95.53
42247;BME280;27913;42.722;23.268;2024-02-21T07:03:46;95570.69;;;5.35;96.01
42247;BME280;27913;42.722;23.268;2024-02-21T07:06:19;95689.38;;;5.99;96.69
42247;BME280;27913;42.722;23.268;2024-02-21T07:09:06;95585.22;;;5.38;97.06
42247;BME280;27913;42.722;23.268;2024-02-21T07:11:52;95684.69;;;6.02;97.57
42247;BME280;27913;42.722;23.268;2024-02-21T07:14:18;95687.44;;;6.11;97.40
42247;BME280;27913;42.722;23.268;2024-02-21T07:16:51;95686.31;;;6.13;97.05
42247;BME280;27913;42.722;23.268;2024-02-21T07:19:29;95687.09;;;6.24;97.36
42247;BME280;27913;42.722;23.268;2024-02-21T07:22:11;95393.31;;;4.29;98.08
42247;BME280;27913;42.722;23.268;2024-02-21T07:24:42;95580.13;;;5.46;98.95
42247;BME280;27913;42.722;23.268;2024-02-21T07:27:38;95580.97;;;5.37;99.56
42247;BME280;27913;42.722;23.268;2024-02-21T07:30:11;95541.47;;;5.12;99.62
42247;BME280;27913;42.722;23.268;2024-02-21T07:32:37;95645.75;;;5.61;99.39
42247;BME280;27913;42.722;23.268;2024-02-21T07:35:06;95391.81;;;3.97;99.92
42247;BME280;27913;42.722;23.268;2024-02-21T07:37:54;95456.75;;;4.48;100.00
42247;BME280;27913;42.722;23.268;2024-02-21T07:40:37;95647.34;;;5.82;100.00
42247;BME280;27913;42.722;23.268;2024-02-21T07:43:13;95687.88;;;6.06;100.00
42247;BME280;27913;42.722;23.268;2024-02-21T07:45:41;95693.34;;;6.13;100.00
42247;BME280;27913;42.722;23.268;2024-02-21T07:48:07;95548.28;;;5.32;100.00
42247;BME280;27913;42.722;23.268;2024-02-21T07:50:52;95465.22;;;4.90;100.00
42247;BME280;27913;42.722;23.268;2024-02-21T07:53:30;95386.56;;;4.46;100.00
42247;BME280;27913;42.722;23.268;2024-02-21T07:59:12;95648.03;;;6.32;100.00
42247;BME280;27913;42.722;23.268;2024-02-21T08:01:56;95683.59;;;6.43;100.00
42247;BME280;27913;42.722;23.268;2024-02-21T08:04:32;95677.28;;;6.46;100.00
42247;BME280;27913;42.722;23.268;2024-02-21T08:07:18;95627.47;;;6.19;100.00
42247;BME280;27913;42.722;23.268;2024-02-21T08:09:56;95678.03;;;6.56;100.00
42247;BME280;27913;42.722;23.268;2024-02-21T08:12:42;95675.97;;;6.60;100.00
42247;BME280;27913;42.722;23.268;2024-02-21T08:15:31;95671.44;;;6.52;99.93
42247;BME280;27913;42.722;23.268;2024-02-21T08:18:16;95385.38;;;4.89;98.82
42247;BME280;27913;42.722;23.268;2024-02-21T08:20:55;95684.41;;;7.00;97.08
42247;BME280;27913;42.722;23.268;2024-02-21T08:23:32;95678.06;;;7.21;96.36
42247;BME280;27913;42.722;23.268;2024-02-21T08:26:17;95392.25;;;5.56;95.07
42247;BME280;27913;42.722;23.268;2024-02-21T08:29:20;95498.00;;;6.35;92.69
42247;BME280;27913;42.722;23.268;2024-02-21T08:32:26;95631.13;;;7.19;91.79
42247;BME280;27913;42.722;23.268;2024-02-21T08:35:26;95375.59;;;5.57;92.01
42247;BME280;27913;42.722;23.268;2024-02-21T08:38:02;95674.09;;;7.53;92.30
42247;BME280;27913;42.722;23.268;2024-02-21T08:44:10;95675.31;;;7.59;89.65
42247;BME280;27913;42.722;23.268;2024-02-21T08:47:05;95556.19;;;6.73;90.61
42247;BME280;27913;42.722;23.268;2024-02-21T08:49:49;95676.03;;;7.51;91.29
42247;BME280;27913;42.722;23.268;2024-02-21T08:52:36;95686.06;;;7.56;89.66
42247;BME280;27913;42.722;23.268;2024-02-21T08:55:17;95672.22;;;7.45;89.15
42247;BME280;27913;42.722;23.268;2024-02-21T08:58:26;95549.56;;;6.33;89.10
42247;BME280;27913;42.722;23.268;2024-02-21T09:01:12;95369.22;;;5.23;89.22
42247;BME280;27913;42.722;23.268;2024-02-21T09:03:48;95582.72;;;6.60;90.08
42247;BME280;27913;42.722;23.268;2024-02-21T09:06:27;95686.97;;;7.28;90.07
42247;BME280;27913;42.722;23.268;2024-02-21T09:09:15;95440.50;;;5.70;89.03
42247;BME280;27913;42.722;23.268;2024-02-21T09:11:57;95563.06;;;6.56;89.46
42247;BME280;27913;42.722;23.268;2024-02-21T09:14:37;95688.75;;;7.46;89.13
42247;BME280;27913;42.722;23.268;2024-02-21T09:17:25;95368.63;;;5.58;88.56
42247;BME280;27913;42.722;23.268;2024-02-21T09:23:20;95662.91;;;7.24;88.72
42247;BME280;27913;42.722;23.268;2024-02-21T09:26:06;95682.91;;;7.52;88.56
42247;BME280;27913;42.722;23.268;2024-02-21T09:28:45;95524.44;;;6.32;90.05
42247;BME280;27913;42.722;23.268;2024-02-21T09:31:26;95568.50;;;6.63;89.41
42247;BME280;27913;42.722;23.268;2024-02-21T09:37:21;95534.66;;;6.43;90.53
42247;BME280;27913;42.722;23.268;2024-02-21T09:40:00;95444.34;;;5.94;89.78
42247;BME280;27913;42.722;23.268;2024-02-21T09:42:55;95607.31;;;7.04;88.11
42247;BME280;27913;42.722;23.268;2024-02-21T09:45:43;95514.44;;;6.45;88.15
42247;BME280;27913;42.722;23.268;2024-02-21T09:48:48;95591.06;;;7.19;87.61
42247;BME280;27913;42.722;23.268;2024-02-21T09:51:28;95682.06;;;7.70;87.37
42247;BME280;27913;42.722;23.268;2024-02-21T09:54:15;95660.91;;;7.81;87.68
42247;BME280;27913;42.722;23.268;2024-02-21T09:57:08;95677.03;;;7.77;85.21
42247;BME280;27913;42.722;23.268;2024-02-21T09:59:46;95367.09;;;5.83;85.76
42247;BME280;27913;42.722;23.268;2024-02-21T10:02:26;95436.22;;;6.25;86.46
42247;BME280;27913;42.722;23.268;2024-02-21T10:05:11;95564.31;;;7.07;87.49
42247;BME280;27913;42.722;23.268;2024-02-21T10:07:48;95586.13;;;7.34;86.61
42247;BME280;27913;42.722;23.268;2024-02-21T10:10:25;95659.91;;;7.82;85.70
42247;BME280;27913;42.722;23.268;2024-02-21T10:13:05;95338.66;;;5.80;85.60
42247;BME280;27913;42.722;23.268;2024-02-21T10:15:41;95553.38;;;7.30;83.57
42247;BME280;27913;42.722;23.268;2024-02-21T10:18:19;95537.88;;;7.36;82.68
42247;BME280;27913;42.722;23.268;2024-02-21T10:20:48;95661.53;;;8.37;79.46
42247;BME280;27913;42.722;23.268;2024-02-21T10:24:04;95571.47;;;8.03;78.95
42247;BME280;27913;42.722;23.268;2024-02-21T10:26:37;95648.22;;;8.65;77.26
42247;BME280;27913;42.722;23.268;2024-02-21T10:29:18;95635.16;;;8.73;77.40
42247;BME280;27913;42.722;23.268;2024-02-21T10:32:10;95376.38;;;7.12;73.21
42247;BME280;27913;42.722;23.268;2024-02-21T10:34:48;95470.44;;;8.00;75.39
42247;BME280;27913;42.722;23.268;2024-02-21T10:37:59;95621.44;;;9.04;72.64
42247;BME280;27913;42.722;23.268;2024-02-21T10:40:48;95476.59;;;8.26;75.14
42247;BME280;27913;42.722;23.268;2024-02-21T10:43:39;95363.81;;;7.67;72.57
42247;BME280;27913;42.722;23.268;2024-02-21T10:46:27;95307.31;;;7.40;73.63
42247;BME280;27913;42.722;23.268;2024-02-21T10:49:10;95612.78;;;9.37;71.63
42247;BME280;27913;42.722;23.268;2024-02-21T10:51:58;95594.25;;;9.22;67.36
42247;BME280;27913;42.722;23.268;2024-02-21T10:57:33;95590.47;;;9.08;64.43
42247;BME280;27913;42.722;23.268;2024-02-21T11:00:14;95414.28;;;7.94;66.06
42247;BME280;27913;42.722;23.268;2024-02-21T11:02:56;95579.47;;;9.04;65.91
42247;BME280;27913;42.722;23.268;2024-02-21T11:05:35;95579.97;;;9.16;65.27
42247;BME280;27913;42.722;23.268;2024-02-21T11:08:22;95573.56;;;9.36;66.77
42247;BME280;27913;42.722;23.268;2024-02-21T11:10:59;95325.56;;;8.00;63.41
42247;BME280;27913;42.722;23.268;2024-02-21T11:13:51;95577.47;;;9.65;62.30
42247;BME280;27913;42.722;23.268;2024-02-21T11:16:41;95462.72;;;8.92;64.29
42247;BME280;27913;42.722;23.268;2024-02-21T11:19:08;95457.63;;;8.82;65.93
42247;BME280;27913;42.722;23.268;2024-02-21T11:21:44;95464.84;;;8.72;66.29
42247;BME280;27913;42.722;23.268;2024-02-21T11:24:49;95307.41;;;7.81;65.94
42247;BME280;27913;42.722;23.268;2024-02-21T11:27:33;95451.75;;;8.72;65.79
42247;BME280;27913;42.722;23.268;2024-02-21T11:30:11;95428.47;;;8.52;66.69
42247;BME280;27913;42.722;23.268;2024-02-21T11:33:06;95533.69;;;9.15;65.98
42247;BME280;27913;42.722;23.268;2024-02-21T11:36:00;95261.84;;;7.49;65.29
42247;BME280;27913;42.722;23.268;2024-02-21T11:38:40;95467.81;;;8.77;65.50
42247;BME280;27913;42.722;23.268;2024-02-21T11:41:19;95463.06;;;8.64;65.68
42247;BME280;27913;42.722;23.268;2024-02-21T11:43:56;95550.94;;;9.35;66.81
42247;BME280;27913;42.722;23.268;2024-02-21T11:46:41;95556.50;;;9.23;66.66
42247;BME280;27913;42.722;23.268;2024-02-21T11:49:25;95418.63;;;8.29;67.55
42247;BME280;27913;42.722;23.268;2024-02-21T11:52:09;95471.09;;;8.62;67.39
42247;BME280;27913;42.722;23.268;2024-02-21T11:54:53;95540.75;;;9.23;66.14
42247;BME280;27913;42.722;23.268;2024-02-21T11:57:30;95367.00;;;8.21;66.32
42247;BME280;27913;42.722;23.268;2024-02-21T12:00:15;95386.66;;;8.42;65.96
42247;BME280;27913;42.722;23.268;2024-02-21T12:02:52;95242.88;;;7.39;65.49
42247;BME280;27913;42.722;23.268;2024-02-21T12:05:31;95536.16;;;9.25;66.99
42247;BME280;27913;42.722;23.268;2024-02-21T12:11:22;95229.44;;;7.33;66.75
42247;BME280;27913;42.722;23.268;2024-02-21T12:14:18;95312.47;;;7.91;66.67
42247;BME280;27913;42.722;23.268;2024-02-21T12:16:54;95473.72;;;8.96;66.07
42247;BME280;27913;42.722;23.268;2024-02-21T12:20:00;95257.78;;;7.55;65.48
42247;BME280;27913;42.722;23.268;2024-02-21T12:22:44;95341.47;;;8.06;65.26
42247;BME280;27913;42.722;23.268;2024-02-21T12:25:24;95507.00;;;9.12;66.06
42247;BME280;27913;42.722;23.268;2024-02-21T12:28:10;95418.78;;;8.52;66.76
42247;BME280;27913;42.722;23.268;2024-02-21T12:30:47;95522.22;;;9.16;67.60
42247;BME280;27913;42.722;23.268;2024-02-21T12:33:26;95246.00;;;7.51;69.01
42247;BME280;27913;42.722;23.268;2024-02-21T12:36:05;95443.72;;;8.81;70.28
42247;BME280;27913;42.722;23.268;2024-02-21T12:38:40;95509.94;;;9.17;72.15
42247;BME280;27913;42.722;23.268;2024-02-21T12:41:26;95511.41;;;9.11;74.07
42247;BME280;27913;42.722;23.268;2024-02-21T12:44:06;95439.28;;;8.65;75.14
42247;BME280;27913;42.722;23.268;2024-02-21T12:46:44;95506.00;;;9.04;75.07
42247;BME280;27913;42.722;23.268;2024-02-21T12:49:20;95465.03;;;8.78;74.86
42247;BME280;27913;42.722;23.268;2024-02-21T12:52:06;95200.66;;;7.17;74.50
42247;BME280;27913;42.722;23.268;2024-02-21T12:54:45;95370.13;;;8.25;75.17
42247;BME280;27913;42.722;23.268;2024-02-21T12:57:39;95499.59;;;9.07;74.34
42247;BME280;27913;42.722;23.268;2024-02-21T13:00:43;95512.88;;;8.80;76.28
42247;BME280;27913;42.722;23.268;2024-02-21T13:03:14;95416.44;;;8.16;76.00
42247;BME280;27913;42.722;23.268;2024-02-21T13:06:19;95380.44;;;8.09;78.22
42247;BME280;27913;42.722;23.268;2024-02-21T13:12:21;95503.72;;;8.76;76.33
42247;BME280;27913;42.722;23.268;2024-02-21T13:15:07;95202.53;;;6.81;75.71
42247;BME280;27913;42.722;23.268;2024-02-21T13:17:48;95428.09;;;8.30;76.41
42247;BME280;27913;42.722;23.268;2024-02-21T13:20:36;95465.19;;;8.68;75.60
42247;BME280;27913;42.722;23.268;2024-02-21T13:23:12;95484.38;;;8.94;74.01
42247;BME280;27913;42.722;23.268;2024-02-21T13:26:07;95384.88;;;8.34;73.95
42247;BME280;27913;42.722;23.268;2024-02-21T13:28:55;95478.28;;;8.77;75.33
42247;BME280;27913;42.722;23.268;2024-02-21T13:31:38;95257.78;;;7.46;74.76
42247;BME280;27913;42.722;23.268;2024-02-21T13:34:25;95477.81;;;8.73;75.13
42247;BME280;27913;42.722;23.268;2024-02-21T13:37:06;95466.81;;;8.61;76.50
42247;BME280;27913;42.722;23.268;2024-02-21T13:39:42;95475.59;;;8.43;76.54
42247;BME280;27913;42.722;23.268;2024-02-21T13:42:26;95381.50;;;7.82;77.56
42247;BME280;27913;42.722;23.268;2024-02-21T13:45:11;95482.34;;;8.46;77.86
42247;BME280;27913;42.722;23.268;2024-02-21T13:47:57;95478.09;;;8.45;79.00
42247;BME280;27913;42.722;23.268;2024-02-21T13:50:46;95258.13;;;7.00;79.56
42247;BME280;27913;42.722;23.268;2024-02-21T13:53:39;95349.72;;;7.60;79.78
42247;BME280;27913;42.722;23.268;2024-02-21T13:56:24;95378.38;;;7.70;80.29